sensor_id;sensor_type;location;lat;lon;timestamp;P1;durP1;ratioP1;P2;durP2;ratioP2
77451;SDS011;66537;52.370;4.832;2023-07-28T00:01:56;20.10;;;6.25;;
77451;SDS011;66537;52.370;4.832;2023-07-28T00:04:21;22.90;;;6.57;;
77451;SDS011;66537;52.370;4.832;2023-07-28T00:06:46;24.88;;;7.50;;
77451;SDS011;66537;52.370;4.832;2023-07-28T00:09:12;19.67;;;5.97;;
77451;SDS011;66537;52.370;4.832;2023-07-28T00:11:37;21.88;;;6.97;;
77451;SDS011;66537;52.370;4.832;2023-07-28T00:14:02;20.87;;;7.13;;
77451;SDS011;66537;52.370;4.832;2023-07-28T00:16:28;21.55;;;7.35;;
77451;SDS011;66537;52.370;4.832;2023-07-28T00:18:53;23.73;;;7.53;;
77451;SDS011;66537;52.370;4.832;2023-07-28T00:21:19;24.02;;;7.65;;
77451;SDS011;66537;52.370;4.832;2023-07-28T00:23:44;31.03;;;9.13;;
77451;SDS011;66537;52.370;4.832;2023-07-28T00:26:09;30.05;;;8.38;;
77451;SDS011;66537;52.370;4.832;2023-07-28T00:28:35;24.08;;;7.63;;
77451;SDS011;66537;52.370;4.832;2023-07-28T00:31:00;29.35;;;7.97;;
77451;SDS011;66537;52.370;4.832;2023-07-28T00:33:25;22.70;;;7.50;;
77451;SDS011;66537;52.370;4.832;2023-07-28T00:35:51;25.70;;;8.05;;
77451;SDS011;66537;52.370;4.832;2023-07-28T00:38:16;30.38;;;9.95;;
77451;SDS011;66537;52.370;4.832;2023-07-28T00:40:41;22.50;;;8.20;;
77451;SDS011;66537;52.370;4.832;2023-07-28T00:43:07;30.60;;;8.45;;
77451;SDS011;66537;52.370;4.832;2023-07-28T00:45:32;28.95;;;8.52;;
77451;SDS011;66537;52.370;4.832;2023-07-28T00:47:58;28.67;;;8.52;;
77451;SDS011;66537;52.370;4.832;2023-07-28T00:50:24;29.17;;;8.15;;
77451;SDS011;66537;52.370;4.832;2023-07-28T00:52:50;21.00;;;7.00;;
77451;SDS011;66537;52.370;4.832;2023-07-28T00:55:16;20.35;;;7.65;;
77451;SDS011;66537;52.370;4.832;2023-07-28T00:57:41;21.80;;;6.93;;
77451;SDS011;66537;52.370;4.832;2023-07-28T01:00:07;26.30;;;7.68;;
77451;SDS011;66537;52.370;4.832;2023-07-28T01:02:32;23.23;;;8.05;;
77451;SDS011;66537;52.370;4.832;2023-07-28T01:04:58;26.38;;;7.30;;
77451;SDS011;66537;52.370;4.832;2023-07-28T01:07:29;22.58;;;7.68;;
77451;SDS011;66537;52.370;4.832;2023-07-28T01:10:02;28.63;;;8.05;;
77451;SDS011;66537;52.370;4.832;2023-07-28T01:12:33;27.02;;;6.97;;
77451;SDS011;66537;52.370;4.832;2023-07-28T01:14:58;22.55;;;7.45;;
77451;SDS011;66537;52.370;4.832;2023-07-28T01:17:24;26.98;;;7.50;;
77451;SDS011;66537;52.370;4.832;2023-07-28T01:19:50;31.38;;;7.45;;
77451;SDS011;66537;52.370;4.832;2023-07-28T01:25:06;20.50;;;6.95;;
77451;SDS011;66537;52.370;4.832;2023-07-28T01:27:43;25.90;;;6.60;;
77451;SDS011;66537;52.370;4.832;2023-07-28T01:30:09;24.73;;;7.05;;
77451;SDS011;66537;52.370;4.832;2023-07-28T01:32:35;26.17;;;7.43;;
77451;SDS011;66537;52.370;4.832;2023-07-28T01:35:01;36.38;;;7.60;;
77451;SDS011;66537;52.370;4.832;2023-07-28T01:37:29;26.33;;;7.90;;
77451;SDS011;66537;52.370;4.832;2023-07-28T01:39:55;30.13;;;8.20;;
77451;SDS011;66537;52.370;4.832;2023-07-28T01:42:22;21.13;;;7.57;;
77451;SDS011;66537;52.370;4.832;2023-07-28T01:44:48;22.13;;;8.60;;
77451;SDS011;66537;52.370;4.832;2023-07-28T01:47:13;29.27;;;8.15;;
77451;SDS011;66537;52.370;4.832;2023-07-28T01:49:39;28.85;;;8.13;;
77451;SDS011;66537;52.370;4.832;2023-07-28T01:52:04;30.43;;;8.67;;
77451;SDS011;66537;52.370;4.832;2023-07-28T01:54:29;26.00;;;7.63;;
77451;SDS011;66537;52.370;4.832;2023-07-28T01:56:55;34.77;;;8.07;;
77451;SDS011;66537;52.370;4.832;2023-07-28T01:59:20;28.63;;;7.93;;
77451;SDS011;66537;52.370;4.832;2023-07-28T02:01:46;27.88;;;9.52;;
77451;SDS011;66537;52.370;4.832;2023-07-28T02:04:12;26.40;;;8.63;;
77451;SDS011;66537;52.370;4.832;2023-07-28T02:06:37;32.60;;;9.13;;
77451;SDS011;66537;52.370;4.832;2023-07-28T02:09:03;24.83;;;8.13;;
77451;SDS011;66537;52.370;4.832;2023-07-28T02:11:28;29.80;;;8.13;;
77451;SDS011;66537;52.370;4.832;2023-07-28T02:13:54;28.63;;;8.18;;
77451;SDS011;66537;52.370;4.832;2023-07-28T02:16:19;28.90;;;9.32;;
77451;SDS011;66537;52.370;4.832;2023-07-28T02:18:44;23.52;;;8.93;;
77451;SDS011;66537;52.370;4.832;2023-07-28T02:21:10;29.40;;;8.33;;
77451;SDS011;66537;52.370;4.832;2023-07-28T02:23:35;31.23;;;8.35;;
77451;SDS011;66537;52.370;4.832;2023-07-28T02:26:00;30.77;;;8.60;;
77451;SDS011;66537;52.370;4.832;2023-07-28T02:28:26;27.80;;;8.33;;
77451;SDS011;66537;52.370;4.832;2023-07-28T02:30:51;24.27;;;8.52;;
77451;SDS011;66537;52.370;4.832;2023-07-28T02:33:17;24.90;;;9.02;;
77451;SDS011;66537;52.370;4.832;2023-07-28T02:35:42;33.90;;;9.38;;
77451;SDS011;66537;52.370;4.832;2023-07-28T02:38:07;30.13;;;8.77;;
77451;SDS011;66537;52.370;4.832;2023-07-28T02:40:33;30.73;;;9.52;;
77451;SDS011;66537;52.370;4.832;2023-07-28T02:42:59;26.48;;;8.02;;
77451;SDS011;66537;52.370;4.832;2023-07-28T02:45:24;29.30;;;9.27;;
77451;SDS011;66537;52.370;4.832;2023-07-28T02:47:50;34.45;;;8.55;;
77451;SDS011;66537;52.370;4.832;2023-07-28T02:50:15;33.13;;;8.95;;
77451;SDS011;66537;52.370;4.832;2023-07-28T02:52:41;32.42;;;10.18;;
77451;SDS011;66537;52.370;4.832;2023-07-28T02:55:06;32.42;;;9.70;;
77451;SDS011;66537;52.370;4.832;2023-07-28T02:57:32;23.42;;;8.43;;
77451;SDS011;66537;52.370;4.832;2023-07-28T02:59:57;30.07;;;9.23;;
77451;SDS011;66537;52.370;4.832;2023-07-28T03:02:23;27.45;;;8.77;;
77451;SDS011;66537;52.370;4.832;2023-07-28T03:04:49;28.13;;;7.50;;
77451;SDS011;66537;52.370;4.832;2023-07-28T03:07:14;32.33;;;9.13;;
77451;SDS011;66537;52.370;4.832;2023-07-28T03:09:40;28.67;;;9.38;;
77451;SDS011;66537;52.370;4.832;2023-07-28T03:12:08;34.80;;;9.90;;
77451;SDS011;66537;52.370;4.832;2023-07-28T03:14:34;28.10;;;8.15;;
77451;SDS011;66537;52.370;4.832;2023-07-28T03:16:59;26.73;;;9.30;;
77451;SDS011;66537;52.370;4.832;2023-07-28T03:19:24;29.10;;;10.33;;
77451;SDS011;66537;52.370;4.832;2023-07-28T03:21:50;27.30;;;9.32;;
77451;SDS011;66537;52.370;4.832;2023-07-28T03:24:15;27.73;;;9.03;;
77451;SDS011;66537;52.370;4.832;2023-07-28T03:26:40;27.17;;;8.77;;
77451;SDS011;66537;52.370;4.832;2023-07-28T03:29:06;25.05;;;8.32;;
77451;SDS011;66537;52.370;4.832;2023-07-28T03:31:31;27.17;;;7.87;;
77451;SDS011;66537;52.370;4.832;2023-07-28T03:34:00;29.10;;;9.90;;
77451;SDS011;66537;52.370;4.832;2023-07-28T03:36:26;25.83;;;9.25;;
77451;SDS011;66537;52.370;4.832;2023-07-28T03:38:51;28.58;;;9.13;;
77451;SDS011;66537;52.370;4.832;2023-07-28T03:41:16;27.30;;;9.30;;
77451;SDS011;66537;52.370;4.832;2023-07-28T03:43:42;24.20;;;8.93;;
77451;SDS011;66537;52.370;4.832;2023-07-28T03:46:07;28.27;;;9.95;;
77451;SDS011;66537;52.370;4.832;2023-07-28T03:48:32;30.95;;;10.60;;
77451;SDS011;66537;52.370;4.832;2023-07-28T03:50:58;20.52;;;8.65;;
77451;SDS011;66537;52.370;4.832;2023-07-28T03:53:23;26.95;;;10.00;;
77451;SDS011;66537;52.370;4.832;2023-07-28T03:55:49;26.00;;;8.88;;
77451;SDS011;66537;52.370;4.832;2023-07-28T03:58:14;24.60;;;9.18;;
77451;SDS011;66537;52.370;4.832;2023-07-28T04:00:39;25.50;;;10.87;;
77451;SDS011;66537;52.370;4.832;2023-07-28T04:03:05;32.75;;;10.07;;
77451;SDS011;66537;52.370;4.832;2023-07-28T04:05:30;28.15;;;10.68;;
77451;SDS011;66537;52.370;4.832;2023-07-28T04:07:59;30.80;;;10.10;;
77451;SDS011;66537;52.370;4.832;2023-07-28T04:10:24;32.28;;;11.20;;
77451;SDS011;66537;52.370;4.832;2023-07-28T04:12:49;28.97;;;9.90;;
77451;SDS011;66537;52.370;4.832;2023-07-28T04:15:15;31.90;;;10.82;;
77451;SDS011;66537;52.370;4.832;2023-07-28T04:17:40;28.75;;;11.75;;
77451;SDS011;66537;52.370;4.832;2023-07-28T04:20:05;28.67;;;10.25;;
77451;SDS011;66537;52.370;4.832;2023-07-28T04:22:31;28.08;;;10.80;;
77451;SDS011;66537;52.370;4.832;2023-07-28T04:24:57;29.00;;;10.90;;
77451;SDS011;66537;52.370;4.832;2023-07-28T04:27:22;28.50;;;9.97;;
77451;SDS011;66537;52.370;4.832;2023-07-28T04:29:47;32.65;;;9.88;;
77451;SDS011;66537;52.370;4.832;2023-07-28T04:32:13;22.50;;;10.00;;
77451;SDS011;66537;52.370;4.832;2023-07-28T04:34:38;32.67;;;11.25;;
77451;SDS011;66537;52.370;4.832;2023-07-28T04:37:03;32.25;;;10.15;;
77451;SDS011;66537;52.370;4.832;2023-07-28T04:39:29;25.83;;;9.85;;
77451;SDS011;66537;52.370;4.832;2023-07-28T04:41:54;26.67;;;11.32;;
77451;SDS011;66537;52.370;4.832;2023-07-28T04:44:20;39.95;;;9.63;;
77451;SDS011;66537;52.370;4.832;2023-07-28T04:46:45;34.58;;;11.23;;
77451;SDS011;66537;52.370;4.832;2023-07-28T04:49:13;32.50;;;10.80;;
77451;SDS011;66537;52.370;4.832;2023-07-28T04:51:39;28.67;;;9.85;;
77451;SDS011;66537;52.370;4.832;2023-07-28T04:54:04;34.65;;;10.80;;
77451;SDS011;66537;52.370;4.832;2023-07-28T04:56:29;30.13;;;9.75;;
77451;SDS011;66537;52.370;4.832;2023-07-28T04:58:55;32.50;;;10.67;;
77451;SDS011;66537;52.370;4.832;2023-07-28T05:01:20;28.58;;;10.35;;
77451;SDS011;66537;52.370;4.832;2023-07-28T05:03:45;32.67;;;9.52;;
77451;SDS011;66537;52.370;4.832;2023-07-28T05:06:11;29.13;;;11.00;;
77451;SDS011;66537;52.370;4.832;2023-07-28T05:08:36;42.13;;;11.20;;
77451;SDS011;66537;52.370;4.832;2023-07-28T05:11:01;32.58;;;11.45;;
77451;SDS011;66537;52.370;4.832;2023-07-28T05:13:27;35.22;;;11.20;;
77451;SDS011;66537;52.370;4.832;2023-07-28T05:15:52;23.50;;;9.80;;
77451;SDS011;66537;52.370;4.832;2023-07-28T05:18:18;37.03;;;11.18;;
77451;SDS011;66537;52.370;4.832;2023-07-28T05:20:43;29.55;;;9.73;;
77451;SDS011;66537;52.370;4.832;2023-07-28T05:23:08;33.42;;;10.27;;
77451;SDS011;66537;52.370;4.832;2023-07-28T05:25:34;31.27;;;10.18;;
77451;SDS011;66537;52.370;4.832;2023-07-28T05:27:59;31.60;;;10.43;;
77451;SDS011;66537;52.370;4.832;2023-07-28T05:30:24;28.00;;;10.95;;
77451;SDS011;66537;52.370;4.832;2023-07-28T05:32:50;24.03;;;9.07;;
77451;SDS011;66537;52.370;4.832;2023-07-28T05:35:15;35.55;;;12.13;;
77451;SDS011;66537;52.370;4.832;2023-07-28T05:37:41;32.30;;;10.40;;
77451;SDS011;66537;52.370;4.832;2023-07-28T05:40:06;31.10;;;10.43;;
77451;SDS011;66537;52.370;4.832;2023-07-28T05:42:32;24.85;;;10.55;;
77451;SDS011;66537;52.370;4.832;2023-07-28T05:44:58;34.90;;;10.05;;
77451;SDS011;66537;52.370;4.832;2023-07-28T05:47:24;25.75;;;9.95;;
77451;SDS011;66537;52.370;4.832;2023-07-28T05:49:49;27.52;;;10.63;;
77451;SDS011;66537;52.370;4.832;2023-07-28T05:52:18;33.90;;;11.48;;
77451;SDS011;66537;52.370;4.832;2023-07-28T05:54:43;35.17;;;12.15;;
77451;SDS011;66537;52.370;4.832;2023-07-28T05:57:09;26.80;;;10.77;;
77451;SDS011;66537;52.370;4.832;2023-07-28T05:59:34;37.22;;;11.43;;
77451;SDS011;66537;52.370;4.832;2023-07-28T06:02:00;31.77;;;11.15;;
77451;SDS011;66537;52.370;4.832;2023-07-28T06:04:25;31.88;;;12.73;;
77451;SDS011;66537;52.370;4.832;2023-07-28T06:06:50;32.00;;;11.05;;
77451;SDS011;66537;52.370;4.832;2023-07-28T06:09:16;36.63;;;11.15;;
77451;SDS011;66537;52.370;4.832;2023-07-28T06:11:41;30.60;;;13.07;;
77451;SDS011;66537;52.370;4.832;2023-07-28T06:14:06;27.95;;;10.65;;
77451;SDS011;66537;52.370;4.832;2023-07-28T06:16:32;22.23;;;10.02;;
77451;SDS011;66537;52.370;4.832;2023-07-28T06:18:57;26.83;;;10.93;;
77451;SDS011;66537;52.370;4.832;2023-07-28T06:21:22;27.13;;;10.63;;
77451;SDS011;66537;52.370;4.832;2023-07-28T06:23:48;26.20;;;10.88;;
77451;SDS011;66537;52.370;4.832;2023-07-28T06:26:13;29.38;;;10.93;;
77451;SDS011;66537;52.370;4.832;2023-07-28T06:28:39;32.70;;;10.55;;
77451;SDS011;66537;52.370;4.832;2023-07-28T06:31:05;30.60;;;10.20;;
77451;SDS011;66537;52.370;4.832;2023-07-28T06:33:30;38.03;;;10.80;;
77451;SDS011;66537;52.370;4.832;2023-07-28T06:35:56;28.83;;;9.65;;
77451;SDS011;66537;52.370;4.832;2023-07-28T06:38:22;37.38;;;12.27;;
77451;SDS011;66537;52.370;4.832;2023-07-28T06:40:47;27.30;;;10.77;;
77451;SDS011;66537;52.370;4.832;2023-07-28T06:43:13;31.08;;;11.25;;
77451;SDS011;66537;52.370;4.832;2023-07-28T06:45:38;28.25;;;10.82;;
77451;SDS011;66537;52.370;4.832;2023-07-28T06:48:03;33.25;;;11.80;;
77451;SDS011;66537;52.370;4.832;2023-07-28T06:50:29;39.10;;;12.52;;
77451;SDS011;66537;52.370;4.832;2023-07-28T06:52:54;28.30;;;12.27;;
77451;SDS011;66537;52.370;4.832;2023-07-28T06:55:20;27.55;;;11.52;;
77451;SDS011;66537;52.370;4.832;2023-07-28T06:57:46;33.15;;;12.23;;
77451;SDS011;66537;52.370;4.832;2023-07-28T07:00:12;32.22;;;12.23;;
77451;SDS011;66537;52.370;4.832;2023-07-28T07:02:39;31.50;;;12.27;;
77451;SDS011;66537;52.370;4.832;2023-07-28T07:05:05;23.80;;;10.85;;
77451;SDS011;66537;52.370;4.832;2023-07-28T07:07:31;32.60;;;11.25;;
77451;SDS011;66537;52.370;4.832;2023-07-28T07:09:57;24.67;;;10.80;;
77451;SDS011;66537;52.370;4.832;2023-07-28T07:12:22;24.40;;;12.18;;
77451;SDS011;66537;52.370;4.832;2023-07-28T07:14:48;25.80;;;12.30;;
77451;SDS011;66537;52.370;4.832;2023-07-28T07:17:13;36.95;;;12.98;;
77451;SDS011;66537;52.370;4.832;2023-07-28T07:19:39;33.53;;;12.75;;
77451;SDS011;66537;52.370;4.832;2023-07-28T07:22:05;26.38;;;11.45;;
77451;SDS011;66537;52.370;4.832;2023-07-28T07:24:31;32.05;;;12.40;;
77451;SDS011;66537;52.370;4.832;2023-07-28T07:26:57;29.52;;;12.90;;
77451;SDS011;66537;52.370;4.832;2023-07-28T07:29:22;28.65;;;12.48;;
77451;SDS011;66537;52.370;4.832;2023-07-28T07:31:48;35.15;;;13.55;;
77451;SDS011;66537;52.370;4.832;2023-07-28T07:34:13;25.35;;;11.48;;
77451;SDS011;66537;52.370;4.832;2023-07-28T07:36:39;26.50;;;10.98;;
77451;SDS011;66537;52.370;4.832;2023-07-28T07:39:05;26.08;;;11.32;;
77451;SDS011;66537;52.370;4.832;2023-07-28T07:41:30;24.15;;;10.07;;
77451;SDS011;66537;52.370;4.832;2023-07-28T07:43:56;24.27;;;10.45;;
77451;SDS011;66537;52.370;4.832;2023-07-28T07:46:22;23.48;;;9.10;;
77451;SDS011;66537;52.370;4.832;2023-07-28T07:48:48;28.52;;;10.65;;
77451;SDS011;66537;52.370;4.832;2023-07-28T07:51:13;29.42;;;9.80;;
77451;SDS011;66537;52.370;4.832;2023-07-28T07:53:39;27.88;;;9.90;;
77451;SDS011;66537;52.370;4.832;2023-07-28T07:56:04;22.25;;;9.02;;
77451;SDS011;66537;52.370;4.832;2023-07-28T07:58:30;23.10;;;9.70;;
77451;SDS011;66537;52.370;4.832;2023-07-28T08:00:57;22.77;;;8.88;;
77451;SDS011;66537;52.370;4.832;2023-07-28T08:03:22;28.15;;;10.00;;
77451;SDS011;66537;52.370;4.832;2023-07-28T08:05:49;24.83;;;8.00;;
77451;SDS011;66537;52.370;4.832;2023-07-28T08:08:15;24.55;;;9.45;;
77451;SDS011;66537;52.370;4.832;2023-07-28T08:10:42;24.33;;;8.43;;
77451;SDS011;66537;52.370;4.832;2023-07-28T08:13:14;19.80;;;8.52;;
77451;SDS011;66537;52.370;4.832;2023-07-28T08:15:40;16.05;;;7.07;;
77451;SDS011;66537;52.370;4.832;2023-07-28T08:18:08;16.98;;;8.00;;
77451;SDS011;66537;52.370;4.832;2023-07-28T08:20:33;23.08;;;8.63;;
77451;SDS011;66537;52.370;4.832;2023-07-28T08:22:58;16.48;;;7.13;;
77451;SDS011;66537;52.370;4.832;2023-07-28T08:25:24;19.48;;;7.60;;
77451;SDS011;66537;52.370;4.832;2023-07-28T08:27:49;16.40;;;7.53;;
77451;SDS011;66537;52.370;4.832;2023-07-28T08:30:15;15.30;;;7.03;;
77451;SDS011;66537;52.370;4.832;2023-07-28T08:32:41;19.98;;;6.80;;
77451;SDS011;66537;52.370;4.832;2023-07-28T08:35:07;14.70;;;7.03;;
77451;SDS011;66537;52.370;4.832;2023-07-28T08:37:33;18.05;;;6.75;;
77451;SDS011;66537;52.370;4.832;2023-07-28T08:39:58;16.80;;;6.40;;
77451;SDS011;66537;52.370;4.832;2023-07-28T08:42:24;15.50;;;6.57;;
77451;SDS011;66537;52.370;4.832;2023-07-28T08:44:49;16.27;;;6.50;;
77451;SDS011;66537;52.370;4.832;2023-07-28T08:47:17;15.50;;;7.07;;
77451;SDS011;66537;52.370;4.832;2023-07-28T08:49:43;15.07;;;7.03;;
77451;SDS011;66537;52.370;4.832;2023-07-28T08:52:09;16.13;;;6.75;;
77451;SDS011;66537;52.370;4.832;2023-07-28T08:54:34;15.25;;;6.50;;
77451;SDS011;66537;52.370;4.832;2023-07-28T08:57:00;12.73;;;6.10;;
77451;SDS011;66537;52.370;4.832;2023-07-28T08:59:26;12.80;;;6.27;;
77451;SDS011;66537;52.370;4.832;2023-07-28T09:01:53;17.73;;;7.30;;
77451;SDS011;66537;52.370;4.832;2023-07-28T09:04:20;17.35;;;6.65;;
77451;SDS011;66537;52.370;4.832;2023-07-28T09:06:50;14.27;;;7.13;;
77451;SDS011;66537;52.370;4.832;2023-07-28T09:09:16;12.73;;;6.28;;
77451;SDS011;66537;52.370;4.832;2023-07-28T09:11:47;15.23;;;6.57;;
77451;SDS011;66537;52.370;4.832;2023-07-28T09:14:14;14.32;;;5.90;;
77451;SDS011;66537;52.370;4.832;2023-07-28T09:16:44;14.85;;;5.88;;
77451;SDS011;66537;52.370;4.832;2023-07-28T09:19:13;20.10;;;6.50;;
77451;SDS011;66537;52.370;4.832;2023-07-28T09:21:39;14.35;;;7.32;;
77451;SDS011;66537;52.370;4.832;2023-07-28T09:24:07;13.10;;;6.28;;
77451;SDS011;66537;52.370;4.832;2023-07-28T09:26:45;17.15;;;6.45;;
77451;SDS011;66537;52.370;4.832;2023-07-28T09:31:38;15.85;;;6.70;;
77451;SDS011;66537;52.370;4.832;2023-07-28T09:34:06;14.93;;;5.97;;
77451;SDS011;66537;52.370;4.832;2023-07-28T09:36:33;13.63;;;6.60;;
77451;SDS011;66537;52.370;4.832;2023-07-28T09:38:59;16.15;;;7.28;;
77451;SDS011;66537;52.370;4.832;2023-07-28T09:41:26;19.27;;;7.15;;
77451;SDS011;66537;52.370;4.832;2023-07-28T09:43:55;18.77;;;7.57;;
77451;SDS011;66537;52.370;4.832;2023-07-28T09:46:22;18.77;;;7.72;;
77451;SDS011;66537;52.370;4.832;2023-07-28T09:48:48;14.13;;;7.45;;
77451;SDS011;66537;52.370;4.832;2023-07-28T09:51:17;14.52;;;6.15;;
77451;SDS011;66537;52.370;4.832;2023-07-28T09:53:46;16.85;;;7.45;;
77451;SDS011;66537;52.370;4.832;2023-07-28T09:56:20;14.77;;;7.05;;
77451;SDS011;66537;52.370;4.832;2023-07-28T09:58:51;20.13;;;8.05;;
77451;SDS011;66537;52.370;4.832;2023-07-28T10:01:18;15.02;;;7.85;;
77451;SDS011;66537;52.370;4.832;2023-07-28T10:03:44;17.58;;;7.82;;
77451;SDS011;66537;52.370;4.832;2023-07-28T10:06:11;13.95;;;7.40;;
77451;SDS011;66537;52.370;4.832;2023-07-28T10:08:38;14.85;;;8.25;;
77451;SDS011;66537;52.370;4.832;2023-07-28T10:11:05;18.05;;;7.55;;
77451;SDS011;66537;52.370;4.832;2023-07-28T10:13:39;26.35;;;8.30;;
77451;SDS011;66537;52.370;4.832;2023-07-28T10:16:07;17.15;;;8.07;;
77451;SDS011;66537;52.370;4.832;2023-07-28T10:18:34;16.58;;;7.68;;
77451;SDS011;66537;52.370;4.832;2023-07-28T10:21:06;22.27;;;7.47;;
77451;SDS011;66537;52.370;4.832;2023-07-28T10:23:35;19.23;;;7.57;;
77451;SDS011;66537;52.370;4.832;2023-07-28T10:26:03;19.23;;;8.13;;
77451;SDS011;66537;52.370;4.832;2023-07-28T10:31:03;19.70;;;8.30;;
77451;SDS011;66537;52.370;4.832;2023-07-28T10:33:35;18.73;;;7.15;;
77451;SDS011;66537;52.370;4.832;2023-07-28T10:38:42;18.55;;;7.38;;
77451;SDS011;66537;52.370;4.832;2023-07-28T10:41:18;20.85;;;7.15;;
77451;SDS011;66537;52.370;4.832;2023-07-28T10:43:44;20.05;;;7.43;;
77451;SDS011;66537;52.370;4.832;2023-07-28T10:46:15;12.43;;;6.95;;
77451;SDS011;66537;52.370;4.832;2023-07-28T10:48:42;13.07;;;6.40;;
77451;SDS011;66537;52.370;4.832;2023-07-28T10:51:09;17.45;;;6.13;;
77451;SDS011;66537;52.370;4.832;2023-07-28T10:53:36;16.10;;;6.22;;
77451;SDS011;66537;52.370;4.832;2023-07-28T10:56:02;17.02;;;5.85;;
77451;SDS011;66537;52.370;4.832;2023-07-28T10:58:30;15.52;;;6.32;;
77451;SDS011;66537;52.370;4.832;2023-07-28T11:00:58;12.55;;;6.63;;
77451;SDS011;66537;52.370;4.832;2023-07-28T11:03:23;12.63;;;6.03;;
77451;SDS011;66537;52.370;4.832;2023-07-28T11:05:49;13.15;;;6.40;;
77451;SDS011;66537;52.370;4.832;2023-07-28T11:08:15;14.68;;;5.93;;
77451;SDS011;66537;52.370;4.832;2023-07-28T11:10:41;16.10;;;6.43;;
77451;SDS011;66537;52.370;4.832;2023-07-28T11:13:07;17.30;;;6.40;;
77451;SDS011;66537;52.370;4.832;2023-07-28T11:15:32;17.73;;;6.20;;
77451;SDS011;66537;52.370;4.832;2023-07-28T11:17:58;15.27;;;6.43;;
77451;SDS011;66537;52.370;4.832;2023-07-28T11:20:25;19.88;;;6.93;;
77451;SDS011;66537;52.370;4.832;2023-07-28T11:23:04;14.15;;;6.55;;
77451;SDS011;66537;52.370;4.832;2023-07-28T11:25:30;14.98;;;6.10;;
77451;SDS011;66537;52.370;4.832;2023-07-28T11:27:57;11.65;;;6.25;;
77451;SDS011;66537;52.370;4.832;2023-07-28T11:30:23;12.77;;;7.15;;
77451;SDS011;66537;52.370;4.832;2023-07-28T11:32:52;14.82;;;5.85;;
77451;SDS011;66537;52.370;4.832;2023-07-28T11:35:19;10.77;;;5.50;;
77451;SDS011;66537;52.370;4.832;2023-07-28T11:37:47;13.32;;;6.22;;
77451;SDS011;66537;52.370;4.832;2023-07-28T11:40:16;11.30;;;5.80;;
77451;SDS011;66537;52.370;4.832;2023-07-28T11:42:53;14.43;;;6.63;;
77451;SDS011;66537;52.370;4.832;2023-07-28T11:45:19;15.02;;;6.53;;
77451;SDS011;66537;52.370;4.832;2023-07-28T11:50:38;12.02;;;6.25;;
77451;SDS011;66537;52.370;4.832;2023-07-28T11:53:05;16.70;;;5.90;;
77451;SDS011;66537;52.370;4.832;2023-07-28T11:55:32;15.10;;;6.00;;
77451;SDS011;66537;52.370;4.832;2023-07-28T11:57:59;15.20;;;6.18;;
77451;SDS011;66537;52.370;4.832;2023-07-28T12:00:33;16.45;;;6.40;;
77451;SDS011;66537;52.370;4.832;2023-07-28T12:03:07;12.30;;;5.45;;
77451;SDS011;66537;52.370;4.832;2023-07-28T12:05:40;13.63;;;5.80;;
77451;SDS011;66537;52.370;4.832;2023-07-28T12:08:07;15.43;;;6.43;;
77451;SDS011;66537;52.370;4.832;2023-07-28T12:10:33;17.83;;;6.38;;
77451;SDS011;66537;52.370;4.832;2023-07-28T12:13:05;15.88;;;5.35;;
77451;SDS011;66537;52.370;4.832;2023-07-28T12:15:32;16.23;;;6.10;;
77451;SDS011;66537;52.370;4.832;2023-07-28T12:23:06;19.52;;;6.95;;
77451;SDS011;66537;52.370;4.832;2023-07-28T12:25:33;12.55;;;5.40;;
77451;SDS011;66537;52.370;4.832;2023-07-28T12:28:01;11.35;;;5.60;;
77451;SDS011;66537;52.370;4.832;2023-07-28T12:30:26;12.68;;;6.30;;
77451;SDS011;66537;52.370;4.832;2023-07-28T12:32:52;12.25;;;5.57;;
77451;SDS011;66537;52.370;4.832;2023-07-28T12:35:17;12.68;;;6.00;;
77451;SDS011;66537;52.370;4.832;2023-07-28T12:37:43;11.70;;;5.95;;
77451;SDS011;66537;52.370;4.832;2023-07-28T12:40:09;12.27;;;5.57;;
77451;SDS011;66537;52.370;4.832;2023-07-28T12:42:35;11.02;;;4.78;;
77451;SDS011;66537;52.370;4.832;2023-07-28T12:45:01;13.40;;;5.55;;
77451;SDS011;66537;52.370;4.832;2023-07-28T12:47:26;15.50;;;6.10;;
77451;SDS011;66537;52.370;4.832;2023-07-28T12:49:51;12.60;;;5.75;;
77451;SDS011;66537;52.370;4.832;2023-07-28T12:52:17;12.80;;;5.40;;
77451;SDS011;66537;52.370;4.832;2023-07-28T12:54:42;11.90;;;5.35;;
77451;SDS011;66537;52.370;4.832;2023-07-28T12:57:08;13.43;;;5.72;;
77451;SDS011;66537;52.370;4.832;2023-07-28T12:59:35;11.30;;;4.60;;
77451;SDS011;66537;52.370;4.832;2023-07-28T13:02:01;13.10;;;5.30;;
77451;SDS011;66537;52.370;4.832;2023-07-28T13:04:26;12.27;;;4.53;;
77451;SDS011;66537;52.370;4.832;2023-07-28T13:06:52;9.82;;;4.68;;
77451;SDS011;66537;52.370;4.832;2023-07-28T13:09:17;9.63;;;4.60;;
77451;SDS011;66537;52.370;4.832;2023-07-28T13:11:42;7.97;;;3.85;;
77451;SDS011;66537;52.370;4.832;2023-07-28T13:14:08;7.43;;;3.55;;
77451;SDS011;66537;52.370;4.832;2023-07-28T13:16:33;9.48;;;4.53;;
77451;SDS011;66537;52.370;4.832;2023-07-28T13:18:58;10.48;;;3.50;;
77451;SDS011;66537;52.370;4.832;2023-07-28T13:21:24;8.93;;;4.50;;
77451;SDS011;66537;52.370;4.832;2023-07-28T13:23:50;9.02;;;4.07;;
77451;SDS011;66537;52.370;4.832;2023-07-28T13:26:15;11.45;;;4.13;;
77451;SDS011;66537;52.370;4.832;2023-07-28T13:28:40;9.50;;;3.70;;
77451;SDS011;66537;52.370;4.832;2023-07-28T13:31:11;9.95;;;4.32;;
77451;SDS011;66537;52.370;4.832;2023-07-28T13:33:37;8.63;;;3.78;;
77451;SDS011;66537;52.370;4.832;2023-07-28T13:36:02;8.82;;;3.55;;
77451;SDS011;66537;52.370;4.832;2023-07-28T13:38:32;8.38;;;3.47;;
77451;SDS011;66537;52.370;4.832;2023-07-28T13:40:57;9.40;;;3.40;;
77451;SDS011;66537;52.370;4.832;2023-07-28T13:43:22;7.03;;;3.05;;
77451;SDS011;66537;52.370;4.832;2023-07-28T13:45:48;11.00;;;3.40;;
77451;SDS011;66537;52.370;4.832;2023-07-28T13:48:13;9.38;;;3.55;;
77451;SDS011;66537;52.370;4.832;2023-07-28T13:50:38;7.43;;;3.22;;
77451;SDS011;66537;52.370;4.832;2023-07-28T13:53:04;6.60;;;2.77;;
77451;SDS011;66537;52.370;4.832;2023-07-28T13:55:29;7.63;;;2.90;;
77451;SDS011;66537;52.370;4.832;2023-07-28T13:57:54;9.15;;;2.85;;
77451;SDS011;66537;52.370;4.832;2023-07-28T14:00:20;7.05;;;2.70;;
77451;SDS011;66537;52.370;4.832;2023-07-28T14:02:45;6.85;;;2.90;;
77451;SDS011;66537;52.370;4.832;2023-07-28T14:05:11;8.07;;;2.53;;
77451;SDS011;66537;52.370;4.832;2023-07-28T14:07:36;8.30;;;2.43;;
77451;SDS011;66537;52.370;4.832;2023-07-28T14:10:02;7.72;;;2.03;;
77451;SDS011;66537;52.370;4.832;2023-07-28T14:12:27;5.85;;;1.98;;
77451;SDS011;66537;52.370;4.832;2023-07-28T14:14:53;5.57;;;1.80;;
77451;SDS011;66537;52.370;4.832;2023-07-28T14:17:18;6.10;;;1.30;;
77451;SDS011;66537;52.370;4.832;2023-07-28T14:19:43;5.55;;;2.35;;
77451;SDS011;66537;52.370;4.832;2023-07-28T14:22:09;5.35;;;2.17;;
77451;SDS011;66537;52.370;4.832;2023-07-28T14:24:34;7.32;;;2.33;;
77451;SDS011;66537;52.370;4.832;2023-07-28T14:27:00;5.68;;;2.65;;
77451;SDS011;66537;52.370;4.832;2023-07-28T14:29:26;7.43;;;2.55;;
77451;SDS011;66537;52.370;4.832;2023-07-28T14:31:51;7.55;;;3.05;;
77451;SDS011;66537;52.370;4.832;2023-07-28T14:34:17;10.77;;;3.47;;
77451;SDS011;66537;52.370;4.832;2023-07-28T14:36:42;11.65;;;3.75;;
77451;SDS011;66537;52.370;4.832;2023-07-28T14:39:08;7.43;;;3.38;;
77451;SDS011;66537;52.370;4.832;2023-07-28T14:41:34;10.50;;;3.58;;
77451;SDS011;66537;52.370;4.832;2023-07-28T14:44:00;10.52;;;3.80;;
77451;SDS011;66537;52.370;4.832;2023-07-28T14:46:26;9.95;;;3.90;;